Time;durP1;ratioP1;P1;durP2;ratioP2;P2;SDS_P1;SDS_P2;PMS_P1;PMS_P2;Temp;Humidity;BMP_temperature;BMP_pressure;BME280_temperature;BME280_humidity;BME280_pressure;Samples;Min_cycle;Max_cycle;Signal;HPM_P1;HPM_P2
2021/10/24 00:00:03;;;;;;;;;;;18.30;58.60;;;;;;5042173;28;19928;-54
2021/10/24 00:02:29;;;;;;;;;;;18.20;58.50;;;;;;5042758;28;19963;-57
2021/10/24 00:04:55;;;;;;;;;;;18.20;58.50;;;;;;5042834;28;20075;-57
2021/10/24 00:07:20;;;;;;;;;;;18.20;58.60;;;;;;5042309;28;19952;-56
2021/10/24 00:09:46;;;;;;;;;;;18.30;58.50;;;;;;5042776;28;20464;-57
2021/10/24 00:12:11;;;;;;;;;;;18.20;58.50;;;;;;5042907;28;19916;-55
2021/10/24 00:14:36;;;;;;;;;;;18.30;58.50;;;;;;5042613;28;19913;-57
2021/10/24 00:17:02;;;;;;;;;;;18.20;58.50;;;;;;5042212;28;20369;-56
2021/10/24 00:19:28;;;;;;;;;;;18.20;58.50;;;;;;5041957;28;19912;-55
2021/10/24 00:21:53;;;;;;;;;;;18.20;58.40;;;;;;5041934;28;20333;-52
2021/10/24 00:24:19;;;;;;;;;;;18.20;58.40;;;;;;5041935;28;19912;-58
2021/10/24 00:26:44;;;;;;;;;;;18.20;58.40;;;;;;5041574;28;20302;-54
2021/10/24 00:29:10;;;;;;;;;;;18.20;58.40;;;;;;5042016;28;20043;-56
2021/10/24 00:31:36;;;;;;;;;;;18.30;58.40;;;;;;5041477;28;19928;-57
2021/10/24 00:34:01;;;;;;;;;;;18.20;58.40;;;;;;5041687;28;19978;-58
2021/10/24 00:36:27;;;;;;;;;;;18.20;58.30;;;;;;5041482;28;20441;-57
2021/10/24 00:38:52;;;;;;;;;;;18.20;58.30;;;;;;5042481;28;19917;-56
2021/10/24 00:41:18;;;;;;;;;;;18.20;58.30;;;;;;5040531;28;19913;-56
2021/10/24 00:43:43;;;;;;;;;;;18.20;58.30;;;;;;5039865;28;19923;-57
2021/10/24 00:46:09;;;;;;;;;;;18.20;58.30;;;;;;5041779;28;19913;-54
2021/10/24 00:48:34;;;;;;;;;;;18.30;58.30;;;;;;5041358;28;20009;-56
2021/10/24 00:50:59;;;;;;;;;;;18.20;58.30;;;;;;5041581;28;19913;-58
2021/10/24 00:53:25;;;;;;;;;;;18.20;58.30;;;;;;5040727;28;19917;-57
2021/10/24 00:55:50;;;;;;;;;;;18.20;58.20;;;;;;5041117;28;19917;-55
2021/10/24 00:58:17;;;;;;;;;;;18.20;58.20;;;;;;5039569;28;20060;-57
2021/10/24 01:00:42;;;;;;;;;;;18.30;58.30;;;;;;5040765;28;19913;-58
2021/10/24 01:03:08;;;;;;;;;;;18.20;58.10;;;;;;5040923;28;19924;-56
2021/10/24 01:05:35;;;;;;;;;;;18.20;58.20;;;;;;5040949;28;19921;-57
2021/10/24 01:08:00;;;;;;;;;;;18.20;58.20;;;;;;5041540;28;20026;-57
2021/10/24 01:10:26;;;;;;;;;;;18.20;58.20;;;;;;5041384;28;19996;-55
2021/10/24 01:12:51;;;;;;;;;;;18.20;58.20;;;;;;5039984;28;19917;-55
2021/10/24 01:15:17;;;;;;;;;;;18.20;58.20;;;;;;5040290;28;20346;-58
2021/10/24 01:17:43;;;;;;;;;;;18.20;58.20;;;;;;5023480;28;19998;-57
2021/10/24 01:20:08;;;;;;;;;;;18.10;58.10;;;;;;5041328;28;19935;-56
2021/10/24 01:22:37;;;;;;;;;;;18.20;58.20;;;;;;5042777;28;19952;-57
2021/10/24 01:25:04;;;;;;;;;;;18.10;58.20;;;;;;5041933;28;20422;-57
2021/10/24 01:27:30;;;;;;;;;;;18.10;58.30;;;;;;5041562;28;19913;-58
2021/10/24 01:29:55;;;;;;;;;;;18.10;58.20;;;;;;5040960;28;19920;-54
2021/10/24 01:32:21;;;;;;;;;;;18.00;58.20;;;;;;5040992;28;20425;-57
2021/10/24 01:34:46;;;;;;;;;;;18.10;58.30;;;;;;5041600;28;19963;-54
2021/10/24 01:37:12;;;;;;;;;;;18.00;58.20;;;;;;5042214;28;19921;-56
2021/10/24 01:39:38;;;;;;;;;;;18.00;58.20;;;;;;5042274;28;20003;-57
2021/10/24 01:42:03;;;;;;;;;;;18.10;58.30;;;;;;5044396;28;19931;-55
2021/10/24 01:44:29;;;;;;;;;;;18.00;58.20;;;;;;5046605;28;19917;-56
2021/10/24 01:46:54;;;;;;;;;;;18.00;58.20;;;;;;5046289;28;19916;-56
2021/10/24 01:49:20;;;;;;;;;;;18.00;58.30;;;;;;5046361;28;20529;-55
2021/10/24 01:51:45;;;;;;;;;;;18.00;58.30;;;;;;5045997;28;19916;-57
2021/10/24 01:54:10;;;;;;;;;;;18.00;58.30;;;;;;5046587;28;20394;-56
2021/10/24 01:56:36;;;;;;;;;;;18.00;58.20;;;;;;5044413;28;20245;-55
2021/10/24 01:59:01;;;;;;;;;;;18.10;58.20;;;;;;5046535;28;19927;-58
2021/10/24 02:01:27;;;;;;;;;;;18.10;58.20;;;;;;5044314;28;19917;-54
2021/10/24 02:03:52;;;;;;;;;;;18.10;58.10;;;;;;5046529;28;19917;-54
2021/10/24 02:06:18;;;;;;;;;;;18.20;58.00;;;;;;5045313;28;19919;-56
2021/10/24 02:08:43;;;;;;;;;;;18.20;58.00;;;;;;5046073;28;20297;-57
2021/10/24 02:11:09;;;;;;;;;;;18.20;57.90;;;;;;5044234;28;19970;-57
2021/10/24 02:13:34;;;;;;;;;;;18.20;57.80;;;;;;5045544;28;19920;-56
2021/10/24 02:15:59;;;;;;;;;;;18.20;57.80;;;;;;5045869;28;19920;-56
2021/10/24 02:18:25;;;;;;;;;;;18.20;57.80;;;;;;5046336;28;20275;-57
2021/10/24 02:20:51;;;;;;;;;;;18.30;57.80;;;;;;5045061;28;19995;-58
2021/10/24 02:23:16;;;;;;;;;;;18.30;57.80;;;;;;5044745;28;19913;-58
2021/10/24 02:25:41;;;;;;;;;;;18.30;57.80;;;;;;5045028;28;19917;-52
2021/10/24 02:28:07;;;;;;;;;;;18.30;57.70;;;;;;5044190;28;19914;-57
2021/10/24 02:30:33;;;;;;;;;;;18.30;57.80;;;;;;5045307;28;19920;-56
2021/10/24 02:32:58;;;;;;;;;;;18.30;57.80;;;;;;5045461;28;19917;-59
2021/10/24 02:35:25;;;;;;;;;;;18.30;57.80;;;;;;5045589;28;20329;-57
2021/10/24 02:37:51;;;;;;;;;;;18.30;57.70;;;;;;5045036;28;20448;-58
2021/10/24 02:40:16;;;;;;;;;;;18.30;57.70;;;;;;5045497;28;19920;-53
2021/10/24 02:42:42;;;;;;;;;;;18.30;57.70;;;;;;5045736;28;19913;-53
2021/10/24 02:45:07;;;;;;;;;;;18.30;57.70;;;;;;5045301;28;20405;-57
2021/10/24 02:47:33;;;;;;;;;;;18.30;57.60;;;;;;5044925;28;19913;-56
2021/10/24 02:49:58;;;;;;;;;;;18.30;57.60;;;;;;5045140;28;19963;-55
2021/10/24 02:52:24;;;;;;;;;;;18.30;57.60;;;;;;5044481;28;19921;-57
2021/10/24 02:54:49;;;;;;;;;;;18.30;57.60;;;;;;5044183;28;20358;-58
2021/10/24 02:57:15;;;;;;;;;;;18.30;57.50;;;;;;5044974;28;19964;-57
2021/10/24 02:59:40;;;;;;;;;;;18.30;57.50;;;;;;5045544;28;19931;-57
2021/10/24 03:02:06;;;;;;;;;;;18.30;57.40;;;;;;5045061;28;19917;-56
2021/10/24 03:04:31;;;;;;;;;;;18.30;57.40;;;;;;5044007;28;19916;-54
2021/10/24 03:06:56;;;;;;;;;;;18.30;57.40;;;;;;5044421;28;20011;-58
2021/10/24 03:09:22;;;;;;;;;;;18.30;57.30;;;;;;5043377;28;19960;-54
2021/10/24 03:11:47;;;;;;;;;;;18.30;57.30;;;;;;5044593;28;19928;-58
2021/10/24 03:14:13;;;;;;;;;;;18.30;57.40;;;;;;5044840;28;20370;-56
2021/10/24 03:16:39;;;;;;;;;;;18.30;57.20;;;;;;5044525;28;20004;-57
2021/10/24 03:19:05;;;;;;;;;;;18.30;57.20;;;;;;5042895;28;20592;-55
2021/10/24 03:21:31;;;;;;;;;;;18.30;57.20;;;;;;5044453;28;20381;-56
2021/10/24 03:23:57;;;;;;;;;;;18.20;57.20;;;;;;5044491;28;19920;-56
2021/10/24 03:26:22;;;;;;;;;;;18.30;57.20;;;;;;5044053;28;19913;-57
2021/10/24 03:28:48;;;;;;;;;;;18.30;57.10;;;;;;5044596;28;19912;-58
2021/10/24 03:31:13;;;;;;;;;;;18.30;57.10;;;;;;5044558;28;19921;-57
2021/10/24 03:33:39;;;;;;;;;;;18.30;57.10;;;;;;5043780;28;20333;-57
2021/10/24 03:36:04;;;;;;;;;;;18.30;57.00;;;;;;5043849;28;19967;-56
2021/10/24 03:38:30;;;;;;;;;;;18.30;57.00;;;;;;5044072;28;20042;-54
2021/10/24 03:40:55;;;;;;;;;;;18.30;57.00;;;;;;5042582;28;19913;-56
2021/10/24 03:43:21;;;;;;;;;;;18.30;57.00;;;;;;5043895;28;19935;-57
2021/10/24 03:45:46;;;;;;;;;;;18.30;57.00;;;;;;5044046;28;19912;-53
2021/10/24 03:48:11;;;;;;;;;;;18.30;56.90;;;;;;5042198;28;19912;-56
2021/10/24 03:50:37;;;;;;;;;;;18.30;57.00;;;;;;5052278;28;20328;-56
2021/10/24 03:53:02;;;;;;;;;;;18.30;56.90;;;;;;5043741;28;19987;-53
2021/10/24 03:55:28;;;;;;;;;;;18.30;56.90;;;;;;5043635;28;19913;-54
2021/10/24 03:57:54;;;;;;;;;;;18.30;56.90;;;;;;5043384;28;19955;-54
2021/10/24 04:00:20;;;;;;;;;;;18.30;56.90;;;;;;5043975;28;20362;-57
2021/10/24 04:02:52;;;;;;;;;;;18.30;56.80;;;;;;5043761;28;19913;-55
2021/10/24 04:05:18;;;;;;;;;;;18.30;56.90;;;;;;5043581;28;19913;-57
2021/10/24 04:07:44;;;;;;;;;;;18.30;56.80;;;;;;5043828;28;19923;-56
2021/10/24 04:10:09;;;;;;;;;;;18.30;57.00;;;;;;5043721;28;19978;-54
2021/10/24 04:12:35;;;;;;;;;;;18.30;56.90;;;;;;5043508;28;19924;-53
2021/10/24 04:15:00;;;;;;;;;;;18.30;56.90;;;;;;5043837;28;19913;-57
2021/10/24 04:17:26;;;;;;;;;;;18.30;56.90;;;;;;5043596;28;19919;-58
2021/10/24 04:19:52;;;;;;;;;;;18.30;56.90;;;;;;5042465;28;19916;-58
2021/10/24 04:22:18;;;;;;;;;;;18.30;56.80;;;;;;5042784;28;19917;-57
2021/10/24 04:24:43;;;;;;;;;;;18.30;56.90;;;;;;5044428;28;19912;-58
2021/10/24 04:27:08;;;;;;;;;;;18.30;56.90;;;;;;5043542;28;20260;-56
2021/10/24 04:29:34;;;;;;;;;;;18.30;56.90;;;;;;5043613;28;19916;-58
2021/10/24 04:31:59;;;;;;;;;;;18.30;57.00;;;;;;5043465;28;19917;-58
2021/10/24 04:34:25;;;;;;;;;;;18.30;56.90;;;;;;5043586;28;20085;-56
2021/10/24 04:36:50;;;;;;;;;;;18.30;56.80;;;;;;5050844;23;19932;-55
2021/10/24 04:39:16;;;;;;;;;;;18.30;56.90;;;;;;5028969;28;20133;-59
2021/10/24 04:41:41;;;;;;;;;;;18.30;56.80;;;;;;5040038;28;19912;-59
2021/10/24 04:44:07;;;;;;;;;;;18.30;56.90;;;;;;5039133;28;19919;-57
2021/10/24 04:46:32;;;;;;;;;;;18.30;56.90;;;;;;5039062;28;20917;-59
2021/10/24 04:48:58;;;;;;;;;;;18.30;56.90;;;;;;5039264;28;19920;-59
2021/10/24 04:51:23;;;;;;;;;;;18.30;56.90;;;;;;5023704;28;19917;-58
2021/10/24 04:53:49;;;;;;;;;;;18.30;56.80;;;;;;5003464;28;19921;-60
2021/10/24 04:56:14;;;;;;;;;;;18.30;56.90;;;;;;5039000;28;20282;-58
2021/10/24 04:58:40;;;;;;;;;;;18.30;56.80;;;;;;5022016;28;19971;-56
2021/10/24 05:01:05;;;;;;;;;;;18.30;56.80;;;;;;5039343;28;19921;-59
2021/10/24 05:03:31;;;;;;;;;;;18.30;56.80;;;;;;5035972;28;19917;-58
2021/10/24 05:05:57;;;;;;;;;;;18.30;56.80;;;;;;5019077;28;19921;-59
2021/10/24 05:08:22;;;;;;;;;;;18.30;56.80;;;;;;5018922;28;19971;-58
2021/10/24 05:10:48;;;;;;;;;;;18.30;56.80;;;;;;5019883;28;20061;-59
2021/10/24 05:13:13;;;;;;;;;;;18.30;56.80;;;;;;5019304;28;19921;-60
2021/10/24 05:15:39;;;;;;;;;;;18.30;56.70;;;;;;5027553;28;19974;-58
2021/10/24 05:18:04;;;;;;;;;;;18.30;56.70;;;;;;5020970;28;19913;-58
2021/10/24 05:20:30;;;;;;;;;;;18.30;56.70;;;;;;5038890;28;19923;-59
2021/10/24 05:22:55;;;;;;;;;;;18.30;56.70;;;;;;5039769;28;19917;-59
2021/10/24 05:25:20;;;;;;;;;;;18.30;56.80;;;;;;5031696;28;20374;-58
2021/10/24 05:27:48;;;;;;;;;;;18.30;56.70;;;;;;5017343;28;19913;-59
2021/10/24 05:30:14;;;;;;;;;;;18.30;56.60;;;;;;5019531;28;19917;-60
2021/10/24 05:32:39;;;;;;;;;;;18.30;56.60;;;;;;5001020;28;20575;-60
2021/10/24 05:35:05;;;;;;;;;;;18.30;56.60;;;;;;5018732;28;19917;-58
2021/10/24 05:37:30;;;;;;;;;;;18.30;56.60;;;;;;5017972;28;19925;-60
2021/10/24 05:39:56;;;;;;;;;;;18.30;56.60;;;;;;5036994;28;20581;-59
2021/10/24 05:42:21;;;;;;;;;;;18.30;56.60;;;;;;5030831;28;19913;-59
2021/10/24 05:44:47;;;;;;;;;;;18.30;56.60;;;;;;5018610;28;19918;-59
2021/10/24 05:47:13;;;;;;;;;;;18.30;56.50;;;;;;5018371;28;19931;-58
2021/10/24 05:49:38;;;;;;;;;;;18.30;56.60;;;;;;5018371;28;19920;-58
2021/10/24 05:52:04;;;;;;;;;;;18.30;56.60;;;;;;5023573;28;19952;-60
2021/10/24 05:54:29;;;;;;;;;;;18.30;56.50;;;;;;5034791;28;19913;-59
2021/10/24 05:56:55;;;;;;;;;;;18.30;56.50;;;;;;5037619;28;19913;-57
2021/10/24 05:59:20;;;;;;;;;;;18.30;56.50;;;;;;5038669;28;20405;-57
2021/10/24 06:01:46;;;;;;;;;;;18.30;56.50;;;;;;5027526;28;20317;-53
2021/10/24 06:04:11;;;;;;;;;;;18.30;56.50;;;;;;5018885;28;19924;-56
2021/10/24 06:06:37;;;;;;;;;;;18.30;56.50;;;;;;5018261;28;19921;-58
2021/10/24 06:09:03;;;;;;;;;;;18.30;56.50;;;;;;5036296;28;20362;-58
2021/10/24 06:11:34;;;;;;;;;;;18.30;56.50;;;;;;5026410;28;19913;-58
2021/10/24 06:14:00;;;;;;;;;;;18.30;56.50;;;;;;5030108;28;19925;-57
2021/10/24 06:16:25;;;;;;;;;;;18.30;56.40;;;;;;5038091;28;19920;-59
2021/10/24 06:18:51;;;;;;;;;;;18.30;56.40;;;;;;5021603;28;20400;-60
2021/10/24 06:21:16;;;;;;;;;;;18.30;56.50;;;;;;5018813;28;19924;-60
2021/10/24 06:23:42;;;;;;;;;;;18.30;56.40;;;;;;5019477;28;19917;-57
2021/10/24 06:26:07;;;;;;;;;;;18.30;56.50;;;;;;5037620;28;19949;-59
2021/10/24 06:28:33;;;;;;;;;;;18.30;56.40;;;;;;5041563;28;19913;-58
2021/10/24 06:30:58;;;;;;;;;;;18.30;56.50;;;;;;5033756;28;19913;-57
2021/10/24 06:33:24;;;;;;;;;;;18.30;56.40;;;;;;5039962;28;19947;-58
2021/10/24 06:35:49;;;;;;;;;;;18.30;56.50;;;;;;5021815;28;20370;-58
2021/10/24 06:38:17;;;;;;;;;;;18.30;56.40;;;;;;5022818;28;19964;-57
2021/10/24 06:40:42;;;;;;;;;;;18.30;56.40;;;;;;4995109;28;19920;-56
2021/10/24 06:43:08;;;;;;;;;;;18.30;56.50;;;;;;5022185;28;19913;-57
2021/10/24 06:45:33;;;;;;;;;;;18.30;56.50;;;;;;5021931;28;20378;-58
2021/10/24 06:47:59;;;;;;;;;;;18.30;56.50;;;;;;5031013;28;19956;-58
2021/10/24 06:50:24;;;;;;;;;;;18.30;56.50;;;;;;5030008;28;19917;-57
2021/10/24 06:52:50;;;;;;;;;;;18.30;56.50;;;;;;5021937;28;19917;-59
2021/10/24 06:55:16;;;;;;;;;;;18.30;56.40;;;;;;5026176;28;19913;-57
2021/10/24 06:57:46;;;;;;;;;;;18.20;56.40;;;;;;5040925;28;19949;-58
2021/10/24 07:00:11;;;;;;;;;;;18.20;56.40;;;;;;5041470;28;20418;-57
2021/10/24 07:02:37;;;;;;;;;;;18.20;56.50;;;;;;5041652;28;19928;-57
2021/10/24 07:05:02;;;;;;;;;;;18.30;56.50;;;;;;5041184;28;19966;-58
2021/10/24 07:07:27;;;;;;;;;;;18.20;56.40;;;;;;5041787;28;20378;-57
2021/10/24 07:09:53;;;;;;;;;;;18.20;56.50;;;;;;5040786;28;19966;-56
2021/10/24 07:12:18;;;;;;;;;;;18.20;56.40;;;;;;5027400;28;20752;-56
2021/10/24 07:14:44;;;;;;;;;;;18.30;56.50;;;;;;5022680;28;19913;-57
2021/10/24 07:17:09;;;;;;;;;;;18.20;56.50;;;;;;5020810;28;20491;-59
2021/10/24 07:19:35;;;;;;;;;;;18.20;56.50;;;;;;5021083;28;19945;-59
2021/10/24 07:22:00;;;;;;;;;;;18.20;56.40;;;;;;5021570;28;20302;-59
2021/10/24 07:24:26;;;;;;;;;;;18.20;56.50;;;;;;5008516;28;19913;-59
2021/10/24 07:26:51;;;;;;;;;;;18.30;56.80;;;;;;5030074;28;20328;-58
2021/10/24 07:29:17;;;;;;;;;;;18.20;56.60;;;;;;5034339;28;19921;-59
2021/10/24 07:31:42;;;;;;;;;;;18.20;57.00;;;;;;5020801;28;19914;-59
2021/10/24 07:34:08;;;;;;;;;;;18.20;57.10;;;;;;5020886;28;19961;-59
2021/10/24 07:36:33;;;;;;;;;;;18.20;57.30;;;;;;5019861;28;19924;-60
2021/10/24 07:38:58;;;;;;;;;;;18.20;57.40;;;;;;5020513;28;19971;-59
2021/10/24 07:41:24;;;;;;;;;;;18.10;57.50;;;;;;5020998;28;19914;-59
2021/10/24 07:43:50;;;;;;;;;;;18.20;57.80;;;;;;5021342;28;19914;-59
2021/10/24 07:46:15;;;;;;;;;;;18.20;57.90;;;;;;5019697;28;19974;-58
2021/10/24 07:48:41;;;;;;;;;;;18.20;58.10;;;;;;5021459;28;19913;-59
2021/10/24 07:51:06;;;;;;;;;;;18.20;58.10;;;;;;5034224;28;19912;-59
2021/10/24 07:53:32;;;;;;;;;;;18.30;58.20;;;;;;5021126;28;19918;-59
2021/10/24 07:55:58;;;;;;;;;;;18.30;58.10;;;;;;5019579;28;20401;-59
2021/10/24 07:58:23;;;;;;;;;;;18.20;57.90;;;;;;5020987;28;19924;-58
2021/10/24 08:00:49;;;;;;;;;;;18.20;57.90;;;;;;5036232;28;19960;-57
2021/10/24 08:03:15;;;;;;;;;;;18.20;57.90;;;;;;5027042;28;19917;-58
2021/10/24 08:05:40;;;;;;;;;;;18.30;57.80;;;;;;5020953;28;19921;-57
2021/10/24 08:08:06;;;;;;;;;;;18.20;57.80;;;;;;5030866;28;19912;-58
2021/10/24 08:10:31;;;;;;;;;;;18.30;57.70;;;;;;5040355;28;19913;-56
2021/10/24 08:12:56;;;;;;;;;;;18.20;57.70;;;;;;5011567;28;20425;-59
2021/10/24 08:15:22;;;;;;;;;;;18.20;57.60;;;;;;5030953;28;19913;-58
2021/10/24 08:17:50;;;;;;;;;;;18.20;57.60;;;;;;5040444;28;19967;-57
2021/10/24 08:20:16;;;;;;;;;;;18.20;57.60;;;;;;5025869;28;19913;-59
2021/10/24 08:22:41;;;;;;;;;;;18.20;57.50;;;;;;5020776;28;19913;-59
2021/10/24 08:25:07;;;;;;;;;;;18.20;57.60;;;;;;5019804;28;19999;-59
2021/10/24 08:27:32;;;;;;;;;;;18.20;57.50;;;;;;5039931;28;19923;-59
2021/10/24 08:29:58;;;;;;;;;;;18.20;57.60;;;;;;5039937;28;20520;-58
2021/10/24 08:32:24;;;;;;;;;;;18.20;57.60;;;;;;5039898;28;19917;-58
2021/10/24 08:34:49;;;;;;;;;;;18.20;57.50;;;;;;5025209;28;19917;-58
2021/10/24 08:37:15;;;;;;;;;;;18.20;57.50;;;;;;5028660;28;19921;-59
2021/10/24 08:39:42;;;;;;;;;;;18.30;57.50;;;;;;5020132;28;20444;-58
2021/10/24 08:42:07;;;;;;;;;;;18.20;57.40;;;;;;5024642;28;20715;-57
2021/10/24 08:44:33;;;;;;;;;;;18.20;57.40;;;;;;5020255;28;19952;-58
2021/10/24 08:46:59;;;;;;;;;;;18.20;57.40;;;;;;5000411;28;19913;-59
2021/10/24 08:49:24;;;;;;;;;;;18.20;57.30;;;;;;5028602;28;20338;-57
2021/10/24 08:51:50;;;;;;;;;;;18.20;57.30;;;;;;5019491;28;19914;-58
2021/10/24 08:54:16;;;;;;;;;;;18.20;57.40;;;;;;5038389;28;19912;-57
2021/10/24 08:56:41;;;;;;;;;;;18.20;57.60;;;;;;5036036;28;19924;-59
2021/10/24 08:59:07;;;;;;;;;;;18.20;58.10;;;;;;5024846;28;19925;-57
2021/10/24 09:01:32;;;;;;;;;;;18.20;58.50;;;;;;5032458;28;19912;-57
2021/10/24 09:04:12;;;;;;;;;;;18.10;58.80;;;;;;5023583;28;19974;-58
2021/10/24 09:06:43;;;;;;;;;;;18.10;58.90;;;;;;5002344;28;19928;-56
2021/10/24 09:09:10;;;;;;;;;;;18.10;59.00;;;;;;5021979;28;19925;-54
2021/10/24 09:11:35;;;;;;;;;;;18.00;58.80;;;;;;5039821;28;19913;-56
2021/10/24 09:14:01;;;;;;;;;;;18.00;58.60;;;;;;5035351;28;19963;-55
2021/10/24 09:16:26;;;;;;;;;;;18.00;58.40;;;;;;5037533;28;19912;-58
2021/10/24 09:18:51;;;;;;;;;;;18.00;58.30;;;;;;5035745;28;20649;-57
2021/10/24 09:21:18;;;;;;;;;;;17.90;58.30;;;;;;5037680;28;19920;-58
2021/10/24 09:23:44;;;;;;;;;;;17.90;58.30;;;;;;5035216;28;19917;-56
2021/10/24 09:26:17;;;;;;;;;;;17.90;58.30;;;;;;5027806;28;20369;-58
2021/10/24 09:28:49;;;;;;;;;;;17.90;58.30;;;;;;5020669;28;20448;-57
2021/10/24 09:31:14;;;;;;;;;;;17.80;58.30;;;;;;5003010;28;19967;-58
2021/10/24 09:33:40;;;;;;;;;;;17.90;58.30;;;;;;5003139;28;19917;-56
2021/10/24 09:36:06;;;;;;;;;;;17.80;58.10;;;;;;5036123;28;20412;-57
2021/10/24 09:38:31;;;;;;;;;;;17.80;58.20;;;;;;5021744;28;19914;-55
2021/10/24 09:40:58;;;;;;;;;;;17.80;58.80;;;;;;5023796;28;20673;-57
2021/10/24 09:43:24;;;;;;;;;;;17.80;58.20;;;;;;5028858;28;20341;-56
2021/10/24 09:45:55;;;;;;;;;;;17.80;58.10;;;;;;5020008;28;19925;-56
2021/10/24 09:48:21;;;;;;;;;;;17.80;58.10;;;;;;5020469;28;19920;-58
2021/10/24 09:50:51;;;;;;;;;;;17.90;58.00;;;;;;5002700;28;19913;-57
2021/10/24 09:53:16;;;;;;;;;;;17.90;57.70;;;;;;5020399;28;19924;-57
2021/10/24 09:55:43;;;;;;;;;;;18.00;57.80;;;;;;5021560;28;20491;-57
2021/10/24 09:58:09;;;;;;;;;;;18.00;57.70;;;;;;5025185;28;19937;-58
2021/10/24 10:00:34;;;;;;;;;;;18.10;57.60;;;;;;5039291;28;19967;-56
2021/10/24 10:03:00;;;;;;;;;;;18.10;57.60;;;;;;5025420;28;19921;-57
2021/10/24 10:05:26;;;;;;;;;;;18.10;57.50;;;;;;5008620;28;19913;-58
2021/10/24 10:07:52;;;;;;;;;;;18.10;57.50;;;;;;5025897;28;19913;-58
2021/10/24 10:10:18;;;;;;;;;;;18.20;57.60;;;;;;5038182;28;20028;-56
2021/10/24 10:12:45;;;;;;;;;;;18.20;57.50;;;;;;5031094;28;20397;-58
2021/10/24 10:15:11;;;;;;;;;;;18.20;57.40;;;;;;5017625;28;19921;-59
2021/10/24 10:17:37;;;;;;;;;;;18.20;57.50;;;;;;5028468;28;20498;-58
2021/10/24 10:20:22;;;;;;;;;;;18.30;57.60;;;;;;5027761;28;19913;-57
2021/10/24 10:23:00;;;;;;;;;;;18.30;57.60;;;;;;5027692;28;19917;-58
2021/10/24 10:25:29;;;;;;;;;;;18.30;57.60;;;;;;5035566;28;19913;-58
2021/10/24 10:27:55;;;;;;;;;;;18.30;57.60;;;;;;5014308;28;19917;-59
2021/10/24 10:30:34;;;;;;;;;;;18.30;57.70;;;;;;5016160;28;19916;-59
2021/10/24 10:33:01;;;;;;;;;;;18.30;57.60;;;;;;5037924;28;19916;-58
2021/10/24 10:35:27;;;;;;;;;;;18.30;57.60;;;;;;5040362;28;19920;-57
2021/10/24 10:37:59;;;;;;;;;;;18.30;57.50;;;;;;5038127;28;19920;-57
2021/10/24 10:40:29;;;;;;;;;;;18.30;57.40;;;;;;5030230;28;19971;-58
2021/10/24 10:42:55;;;;;;;;;;;18.30;57.40;;;;;;5028210;28;19944;-58
2021/10/24 10:45:41;;;;;;;;;;;18.30;57.30;;;;;;5023987;28;19913;-57
2021/10/24 10:48:08;;;;;;;;;;;18.30;57.30;;;;;;5022947;28;19944;-57
2021/10/24 10:50:38;;;;;;;;;;;18.30;57.30;;;;;;5029627;28;19917;-58
2021/10/24 10:53:04;;;;;;;;;;;18.30;57.30;;;;;;5043841;28;20103;-58
2021/10/24 10:55:48;;;;;;;;;;;18.30;57.40;;;;;;5043461;28;20558;-57
2021/10/24 10:58:32;;;;;;;;;;;18.30;57.40;;;;;;5042659;28;20298;-59
2021/10/24 11:00:58;;;;;;;;;;;18.20;57.30;;;;;;5025063;28;19921;-57
2021/10/24 11:03:43;;;;;;;;;;;18.20;57.00;;;;;;5020895;28;19918;-58
2021/10/24 11:06:32;;;;;;;;;;;18.20;57.00;;;;;;5022908;28;19913;-58
2021/10/24 11:08:58;;;;;;;;;;;18.20;57.10;;;;;;4985835;28;19917;-59
2021/10/24 11:11:44;;;;;;;;;;;18.20;57.00;;;;;;5024094;28;20649;-58
2021/10/24 11:14:10;;;;;;;;;;;18.30;56.90;;;;;;5035422;28;19923;-59
2021/10/24 11:16:35;;;;;;;;;;;18.30;56.70;;;;;;5021796;28;19917;-57
2021/10/24 11:19:05;;;;;;;;;;;18.30;56.80;;;;;;5022844;28;19913;-58
2021/10/24 11:21:30;;;;;;;;;;;18.30;56.50;;;;;;5031038;28;19919;-58
2021/10/24 11:23:56;;;;;;;;;;;18.30;56.50;;;;;;5022965;28;20004;-56
2021/10/24 11:26:21;;;;;;;;;;;18.30;56.30;;;;;;5022835;28;19963;-59
2021/10/24 11:28:47;;;;;;;;;;;18.20;56.30;;;;;;4994388;28;20305;-58
2021/10/24 11:31:13;;;;;;;;;;;18.20;56.30;;;;;;5026027;28;19924;-58
2021/10/24 11:33:56;;;;;;;;;;;18.20;56.20;;;;;;5005664;28;19924;-58
2021/10/24 11:36:25;;;;;;;;;;;18.30;56.30;;;;;;5026730;28;20000;-58
2021/10/24 11:38:57;;;;;;;;;;;18.20;56.10;;;;;;5028030;28;19962;-56
2021/10/24 11:41:22;;;;;;;;;;;18.20;56.20;;;;;;5025441;28;19917;-58
2021/10/24 11:43:49;;;;;;;;;;;18.10;56.20;;;;;;5022940;28;20988;-58
2021/10/24 11:46:15;;;;;;;;;;;18.10;56.30;;;;;;5022432;28;20658;-59
2021/10/24 11:48:41;;;;;;;;;;;18.10;56.40;;;;;;5030571;28;19940;-58
2021/10/24 11:51:06;;;;;;;;;;;18.10;56.50;;;;;;5042251;28;20375;-58
2021/10/24 11:53:44;;;;;;;;;;;18.10;56.70;;;;;;5042245;28;19917;-59
2021/10/24 11:56:15;;;;;;;;;;;18.10;56.90;;;;;;5041342;28;19944;-58
2021/10/24 11:59:04;;;;;;;;;;;18.00;56.90;;;;;;5040606;28;19917;-58
2021/10/24 12:01:29;;;;;;;;;;;18.00;57.00;;;;;;5021552;28;19913;-55
2021/10/24 12:04:03;;;;;;;;;;;18.00;57.00;;;;;;5004700;28;19917;-59
2021/10/24 12:06:48;;;;;;;;;;;18.00;57.10;;;;;;5005527;28;19921;-58
2021/10/24 12:09:14;;;;;;;;;;;18.00;57.20;;;;;;5022406;28;19945;-57
2021/10/24 12:11:43;;;;;;;;;;;18.00;57.30;;;;;;5022592;28;19920;-57
2021/10/24 12:14:12;;;;;;;;;;;18.00;57.50;;;;;;5032009;28;20011;-58
2021/10/24 12:16:39;;;;;;;;;;;18.00;58.00;;;;;;5040597;28;19916;-58
2021/10/24 12:19:05;;;;;;;;;;;18.00;58.70;;;;;;5021948;28;19913;-59
2021/10/24 12:21:31;;;;;;;;;;;18.00;59.50;;;;;;5021598;28;19917;-61
2021/10/24 12:24:12;;;;;;;;;;;17.90;60.20;;;;;;5021317;28;19963;-60
2021/10/24 12:26:37;;;;;;;;;;;17.90;60.50;;;;;;5021053;28;20153;-60
2021/10/24 12:29:11;;;;;;;;;;;17.90;60.80;;;;;;5023531;28;19914;-58
2021/10/24 12:31:36;;;;;;;;;;;17.90;60.50;;;;;;5041726;28;20006;-61
2021/10/24 12:34:09;;;;;;;;;;;17.90;60.10;;;;;;5041323;28;19929;-60
2021/10/24 12:36:35;;;;;;;;;;;17.90;59.80;;;;;;5041701;28;19917;-61
2021/10/24 12:39:08;;;;;;;;;;;17.90;59.60;;;;;;5042348;28;19913;-61
2021/10/24 12:41:34;;;;;;;;;;;17.90;59.40;;;;;;5023719;28;19913;-58
2021/10/24 12:44:01;;;;;;;;;;;17.90;59.20;;;;;;5041315;28;19913;-59
2021/10/24 12:46:33;;;;;;;;;;;17.90;59.10;;;;;;5011646;28;19998;-60
2021/10/24 12:49:07;;;;;;;;;;;17.80;59.00;;;;;;5020871;28;19913;-58
2021/10/24 12:51:33;;;;;;;;;;;17.90;60.00;;;;;;5003134;28;19913;-59
2021/10/24 12:53:59;;;;;;;;;;;17.80;60.10;;;;;;5021139;28;20398;-58
2021/10/24 12:56:24;;;;;;;;;;;17.80;60.30;;;;;;5020647;28;19922;-58
2021/10/24 12:58:50;;;;;;;;;;;17.70;60.50;;;;;;5025029;28;20444;-59
2021/10/24 13:01:22;;;;;;;;;;;17.70;60.50;;;;;;5036773;28;19913;-59
2021/10/24 13:03:47;;;;;;;;;;;17.80;60.40;;;;;;5037450;28;20569;-59
2021/10/24 13:06:12;;;;;;;;;;;17.70;60.30;;;;;;5031294;28;19921;-59
2021/10/24 13:08:38;;;;;;;;;;;17.70;60.20;;;;;;5036116;28;20341;-62
2021/10/24 13:11:03;;;;;;;;;;;17.70;60.00;;;;;;5024972;28;19917;-60
2021/10/24 13:13:29;;;;;;;;;;;17.70;59.90;;;;;;5025487;28;19933;-59
2021/10/24 13:15:54;;;;;;;;;;;17.70;59.80;;;;;;5020115;28;20417;-61
2021/10/24 13:18:20;;;;;;;;;;;17.70;59.70;;;;;;5039976;28;19936;-60
2021/10/24 13:20:46;;;;;;;;;;;17.70;59.60;;;;;;5002211;28;20000;-58
2021/10/24 13:23:12;;;;;;;;;;;17.70;59.40;;;;;;5019193;28;19913;-59
2021/10/24 13:25:37;;;;;;;;;;;17.80;59.20;;;;;;5023891;28;19917;-57
2021/10/24 13:28:03;;;;;;;;;;;17.80;59.00;;;;;;5024611;28;19923;-60
2021/10/24 13:30:28;;;;;;;;;;;17.90;58.80;;;;;;5021159;28;19913;-59
2021/10/24 13:32:54;;;;;;;;;;;18.00;58.60;;;;;;5019870;28;20408;-58
2021/10/24 13:35:19;;;;;;;;;;;18.10;58.40;;;;;;5015735;28;19932;-59
2021/10/24 13:37:45;;;;;;;;;;;18.10;58.80;;;;;;5033963;28;19921;-58
2021/10/24 13:40:11;;;;;;;;;;;18.20;58.00;;;;;;5006858;28;19917;-59
2021/10/24 13:42:37;;;;;;;;;;;18.20;58.00;;;;;;5035215;28;19917;-59
2021/10/24 13:45:02;;;;;;;;;;;18.20;58.00;;;;;;5003413;28;19920;-60
2021/10/24 13:47:28;;;;;;;;;;;18.30;58.00;;;;;;5039043;28;19963;-60
2021/10/24 13:49:53;;;;;;;;;;;18.20;58.00;;;;;;5032968;28;19923;-61
2021/10/24 13:52:18;;;;;;;;;;;18.20;58.00;;;;;;5021277;28;19987;-59
2021/10/24 13:54:44;;;;;;;;;;;18.20;58.00;;;;;;5039625;28;20409;-61
2021/10/24 13:57:09;;;;;;;;;;;18.20;58.60;;;;;;5032959;28;19912;-59
2021/10/24 13:59:35;;;;;;;;;;;18.30;58.00;;;;;;5023546;28;19968;-58
2021/10/24 14:02:01;;;;;;;;;;;18.30;58.00;;;;;;5006151;28;19921;-59
2021/10/24 14:04:28;;;;;;;;;;;18.30;58.00;;;;;;5018921;28;19959;-58
2021/10/24 14:06:53;;;;;;;;;;;18.30;58.00;;;;;;5019609;28;19917;-57
2021/10/24 14:09:19;;;;;;;;;;;18.30;57.90;;;;;;5021680;28;19964;-57
2021/10/24 14:11:44;;;;;;;;;;;18.30;57.90;;;;;;5020192;28;20444;-57